createdAt,value
2019-02-10T00:00:07.290Z,5.35
2019-02-10T00:02:36.543Z,5.39
2019-02-10T00:05:06.307Z,5.52
2019-02-10T00:07:35.599Z,5.33
2019-02-10T00:10:05.087Z,5.25
2019-02-10T00:12:34.371Z,5.25
2019-02-10T00:15:03.632Z,5.07
2019-02-10T00:17:33.048Z,5.14
2019-02-10T00:20:02.322Z,5.14
2019-02-10T00:22:31.559Z,5.13
2019-02-10T00:25:00.857Z,5.06
2019-02-10T00:27:30.083Z,5.06
2019-02-10T00:29:59.393Z,4.87
2019-02-10T00:32:28.744Z,4.89
2019-02-10T00:34:58.001Z,4.97
2019-02-10T00:37:27.270Z,4.85
2019-02-10T00:39:56.523Z,4.96
2019-02-10T00:42:25.795Z,4.82
2019-02-10T00:44:55.063Z,4.94
2019-02-10T00:47:24.307Z,4.93
2019-02-10T00:49:53.608Z,4.85
2019-02-10T00:52:22.875Z,4.85
2019-02-10T00:54:52.122Z,4.87
2019-02-10T00:57:21.403Z,4.81
2019-02-10T00:59:50.644Z,5.06
2019-02-10T01:02:19.950Z,4.86
2019-02-10T01:04:49.208Z,4.99
2019-02-10T01:07:18.652Z,5.03
2019-02-10T01:09:47.937Z,4.97
2019-02-10T01:12:17.212Z,5.09
2019-02-10T01:14:46.455Z,4.87
2019-02-10T01:17:15.730Z,4.87
2019-02-10T01:19:45.184Z,4.93
2019-02-10T01:22:14.630Z,4.85
2019-02-10T01:24:43.875Z,5.03
2019-02-10T01:27:13.154Z,4.96
2019-02-10T01:29:42.400Z,4.96
2019-02-10T01:32:11.640Z,4.93
2019-02-10T01:34:40.932Z,4.88
2019-02-10T01:37:10.202Z,4.92
2019-02-10T01:39:39.525Z,4.97
2019-02-10T01:42:08.867Z,4.94
2019-02-10T01:44:38.191Z,4.93
2019-02-10T01:47:07.465Z,4.93
2019-02-10T01:49:36.719Z,4.86
2019-02-10T01:52:05.999Z,4.84
2019-02-10T01:54:35.270Z,4.93
2019-02-10T01:57:04.531Z,4.76
2019-02-10T01:59:34.805Z,4.69
2019-02-10T02:02:04.058Z,4.85
2019-02-10T02:04:33.413Z,4.72
2019-02-10T02:07:04.151Z,4.76
2019-02-10T02:09:33.419Z,4.81
2019-02-10T02:12:02.693Z,4.83
2019-02-10T02:14:31.953Z,4.84
2019-02-10T02:17:01.249Z,5.01
2019-02-10T02:19:30.523Z,4.94
2019-02-10T02:21:59.783Z,4.89
2019-02-10T02:24:29.062Z,4.95
2019-02-10T02:26:58.323Z,4.94
2019-02-10T02:29:27.602Z,4.94
2019-02-10T02:31:56.860Z,5.13
2019-02-10T02:34:26.156Z,5.03
2019-02-10T02:36:55.454Z,5.06
2019-02-10T02:39:25.110Z,4.95
2019-02-10T02:41:54.394Z,4.96
2019-02-10T02:44:23.665Z,4.96
2019-02-10T02:46:52.912Z,4.92
2019-02-10T02:49:23.179Z,4.97
2019-02-10T02:51:52.447Z,4.78
2019-02-10T02:54:21.690Z,4.85
2019-02-10T02:56:50.961Z,4.95
2019-02-10T02:59:20.232Z,4.83
2019-02-10T03:01:49.492Z,4.69
2019-02-10T03:04:18.766Z,4.70
2019-02-10T03:06:48.609Z,4.70
2019-02-10T03:09:18.258Z,4.68
2019-02-10T03:11:47.508Z,4.76
2019-02-10T03:14:16.786Z,4.69
2019-02-10T03:16:46.164Z,4.84
2019-02-10T03:19:15.419Z,4.71
2019-02-10T03:21:44.785Z,4.78
2019-02-10T03:24:14.148Z,4.89
2019-02-10T03:26:43.459Z,4.74
2019-02-10T03:29:12.729Z,4.77
2019-02-10T03:31:41.970Z,4.77
2019-02-10T03:34:11.409Z,4.85
2019-02-10T03:36:40.694Z,4.91
2019-02-10T03:39:09.946Z,4.82
2019-02-10T03:41:39.225Z,4.85
2019-02-10T03:44:08.483Z,4.90
2019-02-10T03:46:37.746Z,4.88
2019-02-10T03:49:07.025Z,4.97
2019-02-10T03:51:36.274Z,5.01
2019-02-10T03:54:05.669Z,5.02
2019-02-10T03:56:36.507Z,5.05
2019-02-10T03:59:05.779Z,4.97
2019-02-10T04:01:35.032Z,5.12
2019-02-10T04:04:04.320Z,5.14
2019-02-10T04:06:33.569Z,5.14
2019-02-10T04:09:02.895Z,5.13
2019-02-10T04:11:32.161Z,5.07
2019-02-10T04:14:01.426Z,5.13
2019-02-10T04:16:30.704Z,5.15
2019-02-10T04:18:59.973Z,5.16
2019-02-10T04:21:29.228Z,5.22
2019-02-10T04:23:58.493Z,5.26
2019-02-10T04:26:27.747Z,5.22
2019-02-10T04:28:57.027Z,5.27
2019-02-10T04:31:26.264Z,5.32
2019-02-10T04:33:55.548Z,5.36
2019-02-10T04:36:24.827Z,5.31
2019-02-10T04:38:54.071Z,5.38
2019-02-10T04:41:23.465Z,5.40
2019-02-10T04:43:52.723Z,5.44
2019-02-10T04:46:21.994Z,5.40
2019-02-10T04:48:51.267Z,5.42
2019-02-10T04:51:21.978Z,5.50
2019-02-10T04:53:51.240Z,5.44
2019-02-10T04:56:20.669Z,5.41
2019-02-10T04:58:50.073Z,5.43
2019-02-10T05:01:19.338Z,5.47
2019-02-10T05:03:48.590Z,5.42
2019-02-10T05:06:17.878Z,5.31
2019-02-10T05:08:47.127Z,5.31
2019-02-10T05:11:16.400Z,5.33
2019-02-10T05:13:45.641Z,5.33
2019-02-10T05:16:14.895Z,5.38
2019-02-10T05:18:44.190Z,5.40
2019-02-10T05:21:13.462Z,5.39
2019-02-10T05:23:42.694Z,5.40
2019-02-10T05:26:12.001Z,5.50
2019-02-10T05:28:41.321Z,5.48
2019-02-10T05:31:10.582Z,5.50
2019-02-10T05:33:39.823Z,5.60
2019-02-10T05:36:09.126Z,5.50
2019-02-10T05:38:38.359Z,5.66
2019-02-10T05:41:07.635Z,5.57
2019-02-10T05:43:36.879Z,5.52
2019-02-10T05:46:06.169Z,5.56
2019-02-10T05:48:35.432Z,5.65
2019-02-10T05:51:04.686Z,5.57
2019-02-10T05:53:33.966Z,5.55
2019-02-10T05:56:03.221Z,5.56
2019-02-10T05:58:32.486Z,5.60
2019-02-10T06:01:50.288Z,5.57
2019-02-10T06:04:19.570Z,5.63
2019-02-10T06:06:49.012Z,5.49
2019-02-10T06:09:18.242Z,5.72
2019-02-10T06:11:47.529Z,5.62
2019-02-10T06:14:18.253Z,5.58
2019-02-10T06:16:47.500Z,5.57
2019-02-10T06:19:16.773Z,5.62
2019-02-10T06:21:46.001Z,5.73
2019-02-10T06:24:15.308Z,5.67
2019-02-10T06:26:44.559Z,5.83
2019-02-10T06:29:13.851Z,5.76
2019-02-10T06:31:43.093Z,5.83
2019-02-10T06:34:12.348Z,5.76
2019-02-10T06:36:41.754Z,5.85
2019-02-10T06:39:11.226Z,5.92
2019-02-10T06:41:41.774Z,5.93
2019-02-10T06:44:11.042Z,5.96
2019-02-10T06:46:40.318Z,5.90
2019-02-10T06:49:09.565Z,5.90
2019-02-10T06:51:38.881Z,5.86
2019-02-10T06:54:08.218Z,5.96
2019-02-10T06:56:37.516Z,5.88
2019-02-10T06:59:09.651Z,6.03
2019-02-10T07:01:44.136Z,6.03
2019-02-10T07:04:21.404Z,5.95
2019-02-10T07:06:50.678Z,5.97
2019-02-10T07:09:19.918Z,5.97
2019-02-10T07:11:49.178Z,5.95
2019-02-10T07:14:24.456Z,6.02
2019-02-10T07:17:40.996Z,5.98
2019-02-10T07:20:45.557Z,6.00
2019-02-10T07:24:07.103Z,5.98
2019-02-10T07:27:08.410Z,6.10
2019-02-10T07:30:18.518Z,6.17
2019-02-10T07:32:50.584Z,6.20
2019-02-10T07:35:39.820Z,6.18
2019-02-10T07:38:38.512Z,6.19
2019-02-10T07:42:12.598Z,6.26
2019-02-10T07:45:19.169Z,6.11
2019-02-10T07:48:27.848Z,6.32
2019-02-10T07:51:25.586Z,6.21
2019-02-10T07:54:10.058Z,6.25
2019-02-10T07:57:38.232Z,6.22
2019-02-10T08:00:42.682Z,6.23
2019-02-10T08:03:31.371Z,6.32
2019-02-10T08:06:15.487Z,6.33
2019-02-10T08:09:35.175Z,6.40
2019-02-10T08:12:42.187Z,6.45
2019-02-10T08:15:43.064Z,6.56
2019-02-10T08:18:39.723Z,6.46
2019-02-10T08:21:40.841Z,6.46
2019-02-10T08:24:53.230Z,6.58
2019-02-10T08:28:15.470Z,6.61
2019-02-10T08:31:20.689Z,6.81
2019-02-10T08:34:19.488Z,6.75
2019-02-10T08:37:32.687Z,6.78
2019-02-10T08:40:38.343Z,6.86
2019-02-10T08:43:57.805Z,6.88
2019-02-10T08:46:49.991Z,6.94
2019-02-10T08:49:31.164Z,6.85
2019-02-10T08:52:39.804Z,6.81
2019-02-10T08:55:09.097Z,6.82
2019-02-10T08:57:38.350Z,6.90
2019-02-10T09:00:09.063Z,6.81
2019-02-10T09:02:38.308Z,6.91
2019-02-10T09:05:07.610Z,6.88
2019-02-10T09:07:36.865Z,6.83
2019-02-10T09:10:07.247Z,6.92
2019-02-10T09:12:36.502Z,6.99
2019-02-10T09:15:07.207Z,7.09
2019-02-10T09:17:36.485Z,7.12
2019-02-10T09:20:06.486Z,7.10
2019-02-10T09:22:35.785Z,7.20
2019-02-10T09:25:05.669Z,7.15
2019-02-10T09:27:35.974Z,7.14
2019-02-10T09:30:06.110Z,7.32
2019-02-10T09:32:35.409Z,7.28
2019-02-10T09:35:04.950Z,7.27
2019-02-10T09:37:34.202Z,7.26
2019-02-10T09:40:03.553Z,7.24
2019-02-10T09:42:32.806Z,7.27
2019-02-10T09:45:02.054Z,7.33
2019-02-10T09:47:31.333Z,7.43
2019-02-10T09:50:00.619Z,7.52
2019-02-10T09:52:30.083Z,7.43
2019-02-10T09:54:59.374Z,7.51
2019-02-10T09:57:28.612Z,7.59
2019-02-10T09:59:57.910Z,7.59
2019-02-10T10:02:32.647Z,7.69
2019-02-10T10:05:05.024Z,7.75
2019-02-10T10:07:36.207Z,7.68
2019-02-10T10:10:07.200Z,7.83
2019-02-10T10:12:37.559Z,7.86
2019-02-10T10:15:09.456Z,7.94
2019-02-10T10:17:39.589Z,7.95
2019-02-10T10:20:11.476Z,7.97
2019-02-10T10:22:42.353Z,8.09
2019-02-10T10:25:12.117Z,8.07
2019-02-10T10:27:41.590Z,8.06
2019-02-10T10:30:13.849Z,8.21
2019-02-10T10:32:43.477Z,8.23
2019-02-10T10:35:13.132Z,8.31
2019-02-10T10:37:42.691Z,8.33
2019-02-10T10:40:12.662Z,8.50
2019-02-10T10:42:42.126Z,8.37
2019-02-10T10:45:33.893Z,8.53
2019-02-10T10:48:03.204Z,8.57
2019-02-10T10:50:34.900Z,8.70
2019-02-10T10:53:04.464Z,8.63
2019-02-10T10:55:34.038Z,8.75
2019-02-10T10:58:03.717Z,8.83
2019-02-10T11:00:33.275Z,8.98
2019-02-10T11:03:02.648Z,8.97
2019-02-10T11:05:32.357Z,9.15
2019-02-10T11:08:03.074Z,9.29
2019-02-10T11:10:32.755Z,9.61
2019-02-10T11:13:02.372Z,9.74
2019-02-10T11:15:31.678Z,9.98
2019-02-10T11:18:01.170Z,10.18
2019-02-10T11:20:30.707Z,10.22
2019-02-10T11:23:00.393Z,10.35
2019-02-10T11:25:30.016Z,10.44
2019-02-10T11:27:59.495Z,10.38
2019-02-10T11:30:29.114Z,10.31
2019-02-10T11:32:58.740Z,10.40
2019-02-10T11:35:28.491Z,10.48
2019-02-10T11:37:58.138Z,10.53
2019-02-10T11:40:27.676Z,10.42
2019-02-10T11:42:57.603Z,10.62
2019-02-10T11:45:28.742Z,10.55
2019-02-10T11:47:58.594Z,10.62
2019-02-10T11:50:28.251Z,10.69
2019-02-10T11:52:57.905Z,10.78
2019-02-10T11:55:28.606Z,10.72
2019-02-10T11:57:58.297Z,10.85
2019-02-10T12:00:29.758Z,10.91
2019-02-10T12:02:59.132Z,11.04
2019-02-10T12:05:29.499Z,10.92
2019-02-10T12:08:00.369Z,10.98
2019-02-10T12:10:30.085Z,11.03
2019-02-10T12:12:59.708Z,11.02
2019-02-10T12:15:31.737Z,10.98
2019-02-10T12:18:05.504Z,10.81
2019-02-10T12:20:34.978Z,10.87
2019-02-10T12:23:04.531Z,10.81
2019-02-10T12:25:34.112Z,10.82
2019-02-10T12:28:04.114Z,10.75
2019-02-10T12:30:33.793Z,10.82
2019-02-10T12:33:03.506Z,10.62
2019-02-10T12:35:33.054Z,10.55
2019-02-10T12:38:02.748Z,10.46
2019-02-10T12:40:32.192Z,10.45
2019-02-10T12:43:01.671Z,10.33
2019-02-10T12:45:33.112Z,10.23
2019-02-10T12:48:05.556Z,10.24
2019-02-10T12:50:37.666Z,10.29
2019-02-10T12:53:06.948Z,10.30
2019-02-10T12:55:36.296Z,10.25
2019-02-10T12:58:05.830Z,10.22
2019-02-10T13:00:35.235Z,10.23
2019-02-10T13:03:04.491Z,10.30
2019-02-10T13:05:33.754Z,10.34
2019-02-10T13:08:04.502Z,10.24
2019-02-10T13:10:34.059Z,10.23
2019-02-10T13:13:03.336Z,10.29
2019-02-10T13:15:35.152Z,10.39
2019-02-10T13:18:07.589Z,10.42
2019-02-10T13:20:37.365Z,10.36
2019-02-10T13:23:06.627Z,10.45
2019-02-10T13:25:35.929Z,10.57
2019-02-10T13:28:05.354Z,10.45
2019-02-10T13:30:34.621Z,10.55
2019-02-10T13:33:03.896Z,10.51
2019-02-10T13:35:33.213Z,10.51
2019-02-10T13:38:02.498Z,10.35
2019-02-10T13:40:31.739Z,10.60
2019-02-10T13:43:02.394Z,10.45
2019-02-10T13:45:32.939Z,10.45
2019-02-10T13:48:02.174Z,10.55
2019-02-10T13:50:31.487Z,10.68
2019-02-10T13:53:01.887Z,10.63
2019-02-10T13:55:31.171Z,10.61
2019-02-10T13:58:00.485Z,10.77
2019-02-10T14:00:31.223Z,10.84
2019-02-10T14:03:00.501Z,10.74
2019-02-10T14:05:30.148Z,10.71
2019-02-10T14:08:02.353Z,10.78
2019-02-10T14:10:33.187Z,10.87
2019-02-10T14:13:02.525Z,10.86
2019-02-10T14:15:33.087Z,10.89
2019-02-10T14:18:02.440Z,10.96
2019-02-10T14:20:33.344Z,11.10
2019-02-10T14:23:04.559Z,11.36
2019-02-10T14:25:33.819Z,11.32
2019-02-10T14:28:03.090Z,11.48
2019-02-10T14:30:33.835Z,11.35
2019-02-10T14:33:04.000Z,11.38
2019-02-10T14:35:33.296Z,11.32
2019-02-10T14:38:02.588Z,11.22
2019-02-10T14:40:33.715Z,11.16
2019-02-10T14:43:02.964Z,11.02
2019-02-10T14:45:32.268Z,10.87
2019-02-10T14:48:01.564Z,10.59
2019-02-10T14:50:30.852Z,10.29
2019-02-10T14:53:00.135Z,10.06
2019-02-10T14:55:29.480Z,9.87
2019-02-10T14:57:58.729Z,9.64
2019-02-10T15:00:28.027Z,9.57
2019-02-10T15:02:57.346Z,9.38
2019-02-10T15:05:26.662Z,9.32
2019-02-10T15:07:55.983Z,9.30
2019-02-10T15:10:25.277Z,9.39
2019-02-10T15:12:54.555Z,9.37
2019-02-10T15:15:24.138Z,9.35
2019-02-10T15:17:53.427Z,9.33
2019-02-10T15:20:22.705Z,9.36
2019-02-10T15:22:51.954Z,9.33
2019-02-10T15:25:21.250Z,9.26
2019-02-10T15:27:50.527Z,9.16
2019-02-10T15:30:19.821Z,9.09
2019-02-10T15:32:49.111Z,9.02
2019-02-10T15:35:18.673Z,9.05
2019-02-10T15:37:47.963Z,8.88
2019-02-10T15:40:17.280Z,8.91
2019-02-10T15:42:46.545Z,8.96
2019-02-10T15:45:15.847Z,8.94
2019-02-10T15:47:45.111Z,8.89
2019-02-10T15:50:14.444Z,9.00
2019-02-10T15:52:43.699Z,8.88
2019-02-10T15:55:12.967Z,8.92
2019-02-10T15:57:43.392Z,8.90
2019-02-10T16:00:14.771Z,8.70
2019-02-10T16:02:44.022Z,8.89
2019-02-10T16:05:13.403Z,8.72
2019-02-10T16:07:42.775Z,8.69
2019-02-10T16:10:13.598Z,8.60
2019-02-10T16:12:43.034Z,8.57
2019-02-10T16:15:14.290Z,8.49
2019-02-10T16:17:43.536Z,8.48
2019-02-10T16:20:13.679Z,8.54
2019-02-10T16:22:43.893Z,8.55
2019-02-10T16:25:13.204Z,8.68
2019-02-10T16:27:42.492Z,8.63
2019-02-10T16:30:13.107Z,8.62
2019-02-10T16:32:49.734Z,8.63
2019-02-10T16:35:15.385Z,8.73
2019-02-10T16:37:44.717Z,8.67
2019-02-10T16:40:15.931Z,8.67
2019-02-10T16:42:45.211Z,8.73
2019-02-10T16:45:14.865Z,8.83
2019-02-10T16:47:44.204Z,8.89
2019-02-10T16:50:13.748Z,8.79
2019-02-10T16:52:43.087Z,8.79
2019-02-10T16:55:13.289Z,8.79
2019-02-10T16:57:43.790Z,8.82
2019-02-10T17:00:14.276Z,8.86
2019-02-10T17:02:43.681Z,8.75
2019-02-10T17:05:13.465Z,8.31
2019-02-10T17:07:42.821Z,7.79
2019-02-10T17:10:13.143Z,7.23
2019-02-10T17:12:42.803Z,6.97
2019-02-10T17:15:13.808Z,6.89
2019-02-10T17:17:44.368Z,6.84
2019-02-10T17:20:13.917Z,6.77
2019-02-10T17:22:46.250Z,6.67
2019-02-10T17:25:17.918Z,6.64
2019-02-10T17:27:47.321Z,6.62
2019-02-10T17:30:16.771Z,6.54
2019-02-10T17:32:46.039Z,6.48
2019-02-10T17:35:15.371Z,6.38
2019-02-10T17:37:44.655Z,6.30
2019-02-10T17:40:27.443Z,6.34
2019-02-10T17:42:56.971Z,6.30
2019-02-10T17:45:26.691Z,6.29
2019-02-10T17:47:56.573Z,6.31
2019-02-10T17:50:26.963Z,6.32
2019-02-10T17:52:56.694Z,6.25
2019-02-10T17:55:26.071Z,6.32
2019-02-10T17:57:55.393Z,6.31
2019-02-10T18:00:28.202Z,6.34
2019-02-10T18:03:00.901Z,6.35
2019-02-10T18:05:32.778Z,6.40
2019-02-10T18:08:02.097Z,6.41
2019-02-10T18:10:31.463Z,6.40
2019-02-10T18:13:03.864Z,6.40
2019-02-10T18:16:11.846Z,6.37
2019-02-10T18:19:06.328Z,6.39
2019-02-10T18:21:53.278Z,6.35
2019-02-10T18:24:28.734Z,6.38
2019-02-10T18:27:30.768Z,6.37
2019-02-10T18:30:30.007Z,6.35
2019-02-10T18:33:17.207Z,6.36
2019-02-10T18:36:06.028Z,6.33
2019-02-10T18:39:00.856Z,6.38
2019-02-10T18:41:40.672Z,6.37
2019-02-10T18:44:35.166Z,6.36
2019-02-10T18:47:13.036Z,6.37
2019-02-10T18:49:50.656Z,6.32
2019-02-10T18:52:51.594Z,6.35
2019-02-10T18:55:38.371Z,6.34
2019-02-10T18:58:34.285Z,6.31
2019-02-10T19:01:23.597Z,6.24
2019-02-10T19:04:14.595Z,6.22
2019-02-10T19:06:49.542Z,6.22
2019-02-10T19:09:30.875Z,6.20
2019-02-10T19:12:19.683Z,6.23
2019-02-10T19:15:15.871Z,6.21
2019-02-10T19:18:04.101Z,6.20
2019-02-10T19:20:53.338Z,6.18
2019-02-10T19:23:40.417Z,6.17
2019-02-10T19:26:31.643Z,6.14
2019-02-10T19:29:25.534Z,6.14
2019-02-10T19:32:14.226Z,6.16
2019-02-10T19:35:15.217Z,6.16
2019-02-10T19:38:09.493Z,6.19
2019-02-10T19:40:54.522Z,6.21
2019-02-10T19:43:43.306Z,6.18
2019-02-10T19:46:33.590Z,6.16
2019-02-10T19:49:12.769Z,6.11
2019-02-10T19:51:52.762Z,6.03
2019-02-10T19:54:28.175Z,5.95
2019-02-10T19:57:27.425Z,5.91
2019-02-10T20:00:15.647Z,5.87
2019-02-10T20:03:09.074Z,5.84
2019-02-10T20:05:48.998Z,5.88
2019-02-10T20:08:36.378Z,5.84
2019-02-10T20:11:13.969Z,5.87
2019-02-10T20:13:56.742Z,5.84
2019-02-10T20:16:44.961Z,5.82
2019-02-10T20:19:24.856Z,5.87
2019-02-10T20:22:13.101Z,5.87
2019-02-10T20:25:10.601Z,5.83
2019-02-10T20:28:01.621Z,5.81
2019-02-10T20:30:44.211Z,5.73
2019-02-10T20:33:27.034Z,5.69
2019-02-10T20:36:04.005Z,5.67
2019-02-10T20:38:58.579Z,5.62
2019-02-10T20:41:37.923Z,5.60
2019-02-10T20:44:29.274Z,5.68
2019-02-10T20:47:22.128Z,5.73
2019-02-10T20:50:04.414Z,5.74
2019-02-10T20:52:52.302Z,5.74
2019-02-10T20:55:28.747Z,5.78
2019-02-10T20:58:20.777Z,5.75
2019-02-10T21:01:05.563Z,5.72
2019-02-10T21:03:54.121Z,5.64
2019-02-10T21:06:45.660Z,5.62
2019-02-10T21:09:20.131Z,5.55
2019-02-10T21:12:20.537Z,5.53
2019-02-10T21:14:59.406Z,5.49
2019-02-10T21:17:46.285Z,5.45
2019-02-10T21:20:35.084Z,5.46
2019-02-10T21:23:13.454Z,5.46
2019-02-10T21:25:55.822Z,5.48
2019-02-10T21:28:34.633Z,5.49
2019-02-10T21:31:18.188Z,5.45
2019-02-10T21:34:25.335Z,5.40
2019-02-10T21:37:07.023Z,5.35
2019-02-10T21:40:06.205Z,5.37
2019-02-10T21:42:56.017Z,5.39
2019-02-10T21:45:35.207Z,5.37
2019-02-10T21:48:20.606Z,5.31
2019-02-10T21:50:50.256Z,5.35
2019-02-10T21:53:20.031Z,5.36
2019-02-10T21:55:49.354Z,5.39
2019-02-10T21:58:19.038Z,5.36
2019-02-10T22:00:48.508Z,5.36
2019-02-10T22:03:18.026Z,5.37
2019-02-10T22:05:48.023Z,5.31
2019-02-10T22:08:17.634Z,5.28
2019-02-10T22:10:47.223Z,5.25
2019-02-10T22:13:16.844Z,5.24
2019-02-10T22:15:47.000Z,5.21
2019-02-10T22:18:17.838Z,5.18
2019-02-10T22:20:47.455Z,5.24
2019-02-10T22:23:16.929Z,5.22
2019-02-10T22:25:46.263Z,5.20
2019-02-10T22:28:15.916Z,5.17
2019-02-10T22:30:45.609Z,5.16
2019-02-10T22:33:15.046Z,5.08
2019-02-10T22:35:44.464Z,5.03
2019-02-10T22:38:13.946Z,5.08
2019-02-10T22:40:43.640Z,4.96
2019-02-10T22:43:13.394Z,4.85
2019-02-10T22:45:43.167Z,4.83
2019-02-10T22:48:12.782Z,4.81
2019-02-10T22:50:42.363Z,4.76
2019-02-10T22:53:12.052Z,4.84
2019-02-10T22:55:41.613Z,4.76
2019-02-10T22:58:10.875Z,4.76
2019-02-10T23:00:48.172Z,4.84
2019-02-10T23:03:18.315Z,4.80
2019-02-10T23:05:49.346Z,4.70
2019-02-10T23:08:18.954Z,4.68
2019-02-10T23:10:48.573Z,4.72
2019-02-10T23:13:18.653Z,4.70
2019-02-10T23:15:48.070Z,4.65
2019-02-10T23:18:17.662Z,4.73
2019-02-10T23:20:47.273Z,4.69
2019-02-10T23:23:16.930Z,4.69
2019-02-10T23:25:46.388Z,4.67
2019-02-10T23:28:16.360Z,4.70
2019-02-10T23:30:45.940Z,4.75
2019-02-10T23:33:15.584Z,4.73
2019-02-10T23:35:45.288Z,4.67
2019-02-10T23:38:14.535Z,4.61
2019-02-10T23:40:43.835Z,4.57
2019-02-10T23:43:13.504Z,4.53
2019-02-10T23:45:42.889Z,4.50
2019-02-10T23:48:12.572Z,4.54
2019-02-10T23:50:42.140Z,4.52
2019-02-10T23:53:11.663Z,4.54
2019-02-10T23:55:41.006Z,4.49
2019-02-10T23:58:10.422Z,4.42
